Time;durP1;ratioP1;P1;durP2;ratioP2;P2;SDS_P1;SDS_P2;PMS_P1;PMS_P2;Temp;Humidity;BMP_temperature;BMP_pressure;BME280_temperature;BME280_humidity;BME280_pressure;Samples;Min_cycle;Max_cycle;Signal;HPM_P1;HPM_P2
2022/03/03 08:29:54;;;;;;;;;;;;;;;;;;6247816;23;20351;-90
2022/03/03 08:35:05;;;;;;;;;;;;;;;;;;6246973;23;19947;-90
2022/03/03 08:37:31;;;;;;;;;;;;;;;;;;6220051;23;19899;-90
2022/03/03 08:39:58;;;;;;;;;;;231.30;1408.00;;;;;;6219998;23;19907;-90
2022/03/03 08:42:27;;;;;;;;;;;;;;;;;;6220417;23;19975;-91
2022/03/03 08:44:53;;;;;;;;;;;;;;;;;;6220410;23;19899;-90
2022/03/03 08:47:20;;;;;;;;;;;384.50;998.40;;;;;;6220425;23;19907;-91
2022/03/03 08:49:48;;;;;;;;;;;410.00;1024.00;;;;;;6220278;23;20313;-89
2022/03/03 08:52:14;;;;;;;;;;;435.70;1024.00;;;;;;6219255;23;20343;-86
2022/03/03 08:54:39;;;;;;;;;;;435.60;1177.60;;;;;;6220402;23;19900;-88
2022/03/03 08:57:06;;;;;;;;;;;461.60;870.40;;;;;;6219972;23;19903;-87
2022/03/03 08:59:32;;;;;;;;;;;486.40;844.80;;;;;;6219935;23;20305;-86
2022/03/03 09:01:57;;;;;;;;;;;487.20;793.60;;;;;;6219416;23;19915;-85
2022/03/03 09:04:23;;;;;;;;;;;537.80;768.00;;;;;;6219646;23;20394;-85
2022/03/03 09:06:49;;;;;;;;;;;563.20;793.60;;;;;;6246174;23;19946;-85
2022/03/03 09:09:14;;;;;;;;;;;563.40;768.00;;;;;;6220214;23;20206;-86
2022/03/03 09:11:40;;;;;;;;;;;564.00;742.40;;;;;;6219375;23;19906;-85
2022/03/03 09:14:07;;;;;;;;;;;588.90;691.20;;;;;;6219743;23;19953;-84
2022/03/03 09:16:34;;;;;;;;;;;614.60;691.20;;;;;;6220018;23;20206;-87
2022/03/03 09:18:59;;;;;;;;;;;614.60;640.00;;;;;;6219855;23;19904;-84
2022/03/03 09:21:25;;;;;;;;;;;615.20;614.40;;;;;;6219469;23;20371;-83
2022/03/03 09:23:50;;;;;;;;;;;614.90;614.40;;;;;;6219777;23;19904;-85
2022/03/03 09:26:16;;;;;;;;;;;615.30;614.40;;;;;;6246222;23;19939;-88
2022/03/03 09:28:42;;;;;;;;;;;640.20;614.40;;;;;;6219589;23;19907;-88
2022/03/03 09:31:07;;;;;;;;;;;665.60;588.80;;;;;;6219769;23;19906;-87
2022/03/03 09:33:33;;;;;;;;;;;691.40;588.80;;;;;;6219855;23;19899;-84
2022/03/03 09:35:59;;;;;;;;;;;692.00;537.60;;;;;;6219057;23;19959;-83
2022/03/03 09:38:24;;;;;;;;;;;716.80;537.60;;;;;;6218547;23;20288;-85
2022/03/03 09:40:50;;;;;;;;;;;717.50;537.60;;;;;;6245525;23;19978;-85
2022/03/03 09:43:16;;;;;;;;;;;742.90;537.60;;;;;;6219600;23;19954;-84
2022/03/03 09:45:42;;;;;;;;;;;742.40;537.60;;;;;;6219543;23;19904;-86
2022/03/03 09:48:09;;;;;;;;;;;742.80;512.00;;;;;;6220348;23;19910;-90
2022/03/03 09:50:38;;;;;;;;;;;768.00;486.40;;;;;;6222478;23;19909;-96
2022/03/03 09:53:08;;;;;;;;;;;768.40;512.00;;;;;;6229321;23;19979;-96
2022/03/03 09:55:34;;;;;;;;;;;793.80;460.80;;;;;;6220816;23;20264;-92
2022/03/03 09:57:59;;;;;;;;;;;794.50;486.40;;;;;;6248108;23;20229;-95
2022/03/03 10:00:26;;;;;;;;;;;794.30;460.80;;;;;;6251639;23;19904;-91
2022/03/03 10:03:09;;;;;;;;;;;793.60;486.40;;;;;;6219570;23;19907;-91
2022/03/03 10:05:45;;;;;;;;;;;793.80;460.80;;;;;;6219551;23;19910;-88
2022/03/03 10:08:12;;;;;;;;;;;768.50;460.80;;;;;;6245567;23;19978;-87
2022/03/03 10:10:39;;;;;;;;;;;768.20;486.40;;;;;;6219693;23;19900;-92
2022/03/03 10:13:05;;;;;;;;;;;794.30;460.80;;;;;;6219239;23;19899;-88
2022/03/03 10:15:31;;;;;;;;;;;819.50;435.20;;;;;;6218980;23;19899;-86
2022/03/03 10:18:01;;;;;;;;;;;768.00;460.80;;;;;;6219100;23;20233;-86
2022/03/03 10:20:28;;;;;;;;;;;743.20;486.40;;;;;;6225845;23;19900;-92
2022/03/03 10:22:57;;;;;;;;;;;768.90;435.20;;;;;;6222226;23;19923;-92
2022/03/03 10:25:43;;;;;;;;;;;819.50;435.20;;;;;;6222230;23;20228;-88
2022/03/03 10:28:13;;;;;;;;;;;768.40;460.80;;;;;;6221623;23;19911;-91
2022/03/03 10:30:54;;;;;;;;;;;768.80;460.80;;;;;;6220859;23;20227;-87
2022/03/03 10:33:21;;;;;;;;;;;794.20;435.20;;;;;;6249522;23;19899;-92
2022/03/03 10:36:00;;;;;;;;;;;768.00;486.40;;;;;;6221732;23;19899;-95
2022/03/03 10:38:27;;;;;;;;;;;717.60;460.80;;;;;;6248697;23;19904;-91
2022/03/03 10:40:53;;;;;;;;;;;793.80;460.80;;;;;;6222471;23;19922;-86
2022/03/03 10:43:18;;;;;;;;;;;819.20;460.80;;;;;;6224691;23;20313;-87
2022/03/03 10:45:55;;;;;;;;;;;768.70;460.80;;;;;;6223490;23;20366;-94
2022/03/03 10:48:21;;;;;;;;;;;717.60;460.80;;;;;;6223480;23;20280;-86
2022/03/03 10:50:48;;;;;;;;;;;691.30;512.00;;;;;;6221868;23;19900;-85
2022/03/03 10:53:17;;;;;;;;;;;614.50;588.80;;;;;;6221592;23;19910;-87
2022/03/03 10:56:02;;;;;;;;;;;588.80;640.00;;;;;;6221612;23;19900;-88
2022/03/03 10:58:43;;;;;;;;;;;537.90;691.20;;;;;;6224301;23;19899;-93
2022/03/03 11:01:08;;;;;;;;;;;486.80;691.20;;;;;;6247707;23;19899;-87
2022/03/03 11:03:35;;;;;;;;;;;;;;;;;;6221890;23;19906;-90
2022/03/03 11:06:02;;;;;;;;;;;435.60;716.80;;;;;;6222755;23;20331;-88
2022/03/03 11:08:28;;;;;;;;;;;435.20;793.60;;;;;;6223026;23;19910;-88
2022/03/03 11:10:54;;;;;;;;;;;;;;;;;;6222364;23;20224;-89
2022/03/03 11:13:20;;;;;;;;;;;384.70;768.00;;;;;;6222279;23;19982;-87
2022/03/03 11:15:46;;;;;;;;;;;;;;;;;;6221788;23;19911;-88
2022/03/03 11:18:18;;;;;;;;;;;;;;;;;;6222285;23;19900;-88
2022/03/03 11:20:44;;;;;;;;;;;;;;;;;;6222082;23;19983;-92
2022/03/03 11:23:10;;;;;;;;;;;;;;;;;;6221721;23;19899;-93
2022/03/03 11:25:36;;;;;;;;;;;;;;;;;;6248395;23;19934;-91
2022/03/03 11:28:03;;;;;;;;;;;358.70;896.00;;;;;;6248341;23;19907;-93
2022/03/03 11:30:30;;;;;;;;;;;358.70;896.00;;;;;;6221514;23;19907;-90
2022/03/03 11:33:14;;;;;;;;;;;358.80;896.00;;;;;;6221221;23;20318;-94
2022/03/03 11:35:48;;;;;;;;;;;358.70;896.00;;;;;;6221135;23;19934;-87
2022/03/03 11:38:14;;;;;;;;;;;358.80;921.60;;;;;;6221320;23;19971;-92
2022/03/03 11:40:50;;;;;;;;;;;358.60;896.00;;;;;;6220840;23;19900;-90
2022/03/03 11:43:16;;;;;;;;;;;358.60;921.60;;;;;;6245739;23;19926;-88
2022/03/03 11:45:48;;;;;;;;;;;358.70;947.20;;;;;;6219084;23;20373;-88
2022/03/03 11:48:15;;;;;;;;;;;358.60;947.20;;;;;;6246484;23;19943;-87
2022/03/03 11:50:42;;;;;;;;;;;358.40;947.20;;;;;;6221756;23;20078;-87
2022/03/03 11:53:08;;;;;;;;;;;;;;;;;;6222261;23;19953;-88
2022/03/03 11:55:37;;;;;;;;;;;333.20;947.20;;;;;;6248985;23;19903;-90
2022/03/03 11:58:02;;;;;;;;;;;333.30;921.60;;;;;;6246770;23;19899;-90
2022/03/03 12:00:29;;;;;;;;;;;333.50;921.60;;;;;;6222211;23;20335;-90
2022/03/03 12:02:58;;;;;;;;;;;333.60;921.60;;;;;;6221102;23;19946;-89
2022/03/03 12:05:26;;;;;;;;;;;333.70;921.60;;;;;;6246888;23;19945;-91
2022/03/03 12:07:55;;;;;;;;;;;358.40;921.60;;;;;;6245525;23;19915;-89
2022/03/03 12:10:22;;;;;;;;;;;333.30;947.20;;;;;;6220539;23;20260;-89
2022/03/03 12:12:48;;;;;;;;;;;333.40;947.20;;;;;;6246900;23;20339;-89
2022/03/03 12:15:14;;;;;;;;;;;333.50;921.60;;;;;;6221062;23;19903;-89
2022/03/03 12:17:45;;;;;;;;;;;358.70;870.40;;;;;;6220958;23;19974;-89
2022/03/03 12:20:23;;;;;;;;;;;384.50;870.40;;;;;;6221595;23;19923;-89
2022/03/03 12:23:08;;;;;;;;;;;384.80;819.20;;;;;;6246799;23;19899;-86
2022/03/03 12:25:54;;;;;;;;;;;410.40;793.60;;;;;;6218401;23;19906;-90
2022/03/03 12:28:22;;;;;;;;;;;;;;;;;;6221371;23;19912;-85
2022/03/03 12:30:48;;;;;;;;;;;512.10;691.20;;;;;;6221448;23;19896;-85
2022/03/03 12:33:22;;;;;;;;;;;589.30;691.20;;;;;;6221088;23;19904;-86
2022/03/03 12:35:48;;;;;;;;;;;614.50;640.00;;;;;;6221157;23;20340;-91
2022/03/03 12:38:13;;;;;;;;;;;614.50;691.20;;;;;;6221439;23;19934;-86
2022/03/03 12:40:39;;;;;;;;;;;589.70;614.40;;;;;;6222302;23;19900;-88
2022/03/03 12:43:16;;;;;;;;;;;640.70;563.20;;;;;;6221375;23;19903;-86
2022/03/03 12:45:43;;;;;;;;;;;640.40;537.60;;;;;;6220656;23;19986;-88
2022/03/03 12:48:08;;;;;;;;;;;640.70;537.60;;;;;;6247007;23;19935;-87
2022/03/03 12:50:35;;;;;;;;;;;716.80;512.00;;;;;;6220553;23;19906;-88
2022/03/03 12:53:06;;;;;;;;;;;793.80;460.80;;;;;;6221578;23;19900;-87
2022/03/03 12:55:35;;;;;;;;;;;768.40;435.20;;;;;;6247502;23;19922;-88
2022/03/03 12:58:03;;;;;;;;;;;742.80;460.80;;;;;;6221999;23;19900;-88
2022/03/03 13:00:34;;;;;;;;;;;820.00;409.60;;;;;;6221341;23;19900;-91
2022/03/03 13:03:00;;;;;;;;;;;794.30;435.20;;;;;;6223195;23;19903;-87
2022/03/03 13:05:30;;;;;;;;;;;716.80;486.40;;;;;;6221490;23;19911;-87
2022/03/03 13:07:56;;;;;;;;;;;692.00;460.80;;;;;;6220057;23;19916;-90
2022/03/03 13:10:22;;;;;;;;;;;717.20;486.40;;;;;;6220097;23;19899;-91
2022/03/03 13:12:48;;;;;;;;;;;692.00;486.40;;;;;;6222508;23;19900;-90
2022/03/03 13:15:14;;;;;;;;;;;768.00;460.80;;;;;;6220956;23;20210;-92
2022/03/03 13:17:59;;;;;;;;;;;768.50;460.80;;;;;;6222544;23;19930;-90
2022/03/03 13:20:25;;;;;;;;;;;743.10;486.40;;;;;;6221012;23;19935;-95
2022/03/03 13:22:50;;;;;;;;;;;717.50;486.40;;;;;;6220426;23;20226;-93
2022/03/03 13:25:17;;;;;;;;;;;768.80;460.80;;;;;;6221833;23;19899;-92
2022/03/03 13:27:46;;;;;;;;;;;819.50;435.20;;;;;;6219706;23;19912;-94
2022/03/03 13:30:13;;;;;;;;;;;896.10;358.40;;;;;;6231049;23;19900;-92
2022/03/03 13:32:45;;;;;;;;;;;947.20;332.80;;;;;;6222701;23;19943;-94
2022/03/03 13:35:12;;;;;;;;;;;973.70;307.20;;;;;;6220602;23;19941;-83
2022/03/03 13:37:37;;;;;;;;;;;998.50;332.80;;;;;;6220156;23;19907;-91
2022/03/03 13:40:13;;;;;;;;;;;999.30;332.80;;;;;;6220410;23;19899;-91
2022/03/03 13:42:39;;;;;;;;;;;1024.70;332.80;;;;;;6220466;23;19900;-91
2022/03/03 13:45:05;;;;;;;;;;;1049.70;358.40;;;;;;6220731;23;19979;-90
2022/03/03 13:47:38;;;;;;;;;;;1049.70;358.40;;;;;;6220031;23;19907;-88
2022/03/03 13:50:06;;;;;;;;;;;1049.80;358.40;;;;;;6246367;23;19900;-93
2022/03/03 13:52:38;;;;;;;;;;;1050.10;358.40;;;;;;6220160;23;20233;-84
2022/03/03 13:55:17;;;;;;;;;;;1024.60;332.80;;;;;;6220147;23;19899;-83
2022/03/03 13:57:49;;;;;;;;;;;998.40;332.80;;;;;;6247050;23;19978;-90
2022/03/03 14:00:21;;;;;;;;;;;972.80;332.80;;;;;;6221098;23;19903;-84
2022/03/03 14:02:52;;;;;;;;;;;922.40;332.80;;;;;;6220795;23;19922;-84
2022/03/03 14:05:19;;;;;;;;;;;896.90;307.20;;;;;;6222101;23;19900;-84
2022/03/03 14:07:53;;;;;;;;;;;845.20;384.00;;;;;;6221863;23;20325;-84
2022/03/03 14:10:19;;;;;;;;;;;793.80;409.60;;;;;;6222029;23;20397;-83
2022/03/03 14:13:02;;;;;;;;;;;768.00;409.60;;;;;;6221985;23;20097;-83
2022/03/03 14:15:27;;;;;;;;;;;716.80;435.20;;;;;;6222028;23;20309;-84
2022/03/03 14:17:53;;;;;;;;;;;743.10;409.60;;;;;;6221953;23;19931;-83
2022/03/03 14:20:19;;;;;;;;;;;691.40;435.20;;;;;;6221946;23;19899;-83
2022/03/03 14:22:58;;;;;;;;;;;691.20;460.80;;;;;;6221538;23;19900;-90
2022/03/03 14:25:24;;;;;;;;;;;691.50;460.80;;;;;;6221374;23;19961;-83
2022/03/03 14:27:50;;;;;;;;;;;691.30;460.80;;;;;;6220266;23;19917;-84
2022/03/03 14:30:16;;;;;;;;;;;614.50;537.60;;;;;;6220702;23;19974;-83
2022/03/03 14:32:42;;;;;;;;;;;538.10;640.00;;;;;;6222066;23;19931;-84
2022/03/03 14:35:08;;;;;;;;;;;;;;;;;;6222095;23;19924;-84
2022/03/03 14:37:34;;;;;;;;;;;486.40;691.20;;;;;;6222022;23;20206;-84
2022/03/03 14:40:00;;;;;;;;;;;;;;;;;;6221715;23;19922;-84
2022/03/03 14:42:26;;;;;;;;;;;460.90;691.20;;;;;;6221747;23;19903;-84
2022/03/03 14:44:52;;;;;;;;;;;;;;;;;;6221875;23;20328;-84
2022/03/03 14:47:18;;;;;;;;;;;435.30;716.80;;;;;;6221484;23;19908;-83
2022/03/03 14:49:44;;;;;;;;;;;;;;;;;;6221840;23;19905;-91
2022/03/03 14:52:10;;;;;;;;;;;409.60;793.60;;;;;;6221917;23;19899;-84
2022/03/03 14:54:36;;;;;;;;;;;;;;;;;;6222034;23;20372;-92
2022/03/03 14:57:02;;;;;;;;;;;;;;;;;;6221697;23;19953;-84
2022/03/03 14:59:28;;;;;;;;;;;;;;;;;;6221670;23;20332;-83
2022/03/03 15:01:54;;;;;;;;;;;;;;;;;;6221786;23;19899;-84
2022/03/03 15:04:20;;;;;;;;;;;;;;;;;;6221639;23;19927;-84
2022/03/03 15:06:47;;;;;;;;;;;359.00;1024.00;;;;;;6221522;23;19914;-85
2022/03/03 15:09:12;;;;;;;;;;;358.90;921.60;;;;;;6220975;23;19935;-85
2022/03/03 15:11:38;;;;;;;;;;;358.80;947.20;;;;;;6221693;23;19899;-85
2022/03/03 15:14:04;;;;;;;;;;;;;;;;;;6221714;23;19906;-84
2022/03/03 15:16:31;;;;;;;;;;;;;;;;;;6221821;23;19900;-85
2022/03/03 15:18:57;;;;;;;;;;;;;;;;;;6221460;23;20309;-85
2022/03/03 15:21:23;;;;;;;;;;;333.50;896.00;;;;;;6221699;23;19906;-92
2022/03/03 15:23:48;;;;;;;;;;;333.10;896.00;;;;;;6248800;23;19978;-85
2022/03/03 15:26:14;;;;;;;;;;;;;;;;;;6213365;23;20406;-85
2022/03/03 15:28:40;;;;;;;;;;;;;;;;;;6191601;23;20318;-86
2022/03/03 15:31:06;;;;;;;;;;;;;;;;;;6191569;23;19904;-86
2022/03/03 15:39:02;;;;;;;;;;;;;;;;;;6218419;23;19937;-83
2022/03/03 15:41:28;;;;;;;;;;;;;;;;;;6191388;23;19900;-83
2022/03/03 15:43:54;;;;;;;;;;;;;;;;;;6217976;23;20337;-86
2022/03/03 15:46:20;;;;;;;;;;;;;;;;;;6191176;23;19950;-85
2022/03/03 15:48:47;;;;;;;;;;;;;;;;;;6218299;23;20337;-85
2022/03/03 15:51:13;;;;;;;;;;;;;;;;;;6191389;23;20215;-85
2022/03/03 15:53:39;;;;;;;;;;;;;;;;;;6217892;23;19989;-86
2022/03/03 15:56:05;;;;;;;;;;;;;;;;;;6191338;23;19906;-86
2022/03/03 15:58:31;;;;;;;;;;;;;;;;;;6191403;23;19931;-86
2022/03/03 16:00:57;;;;;;;;;;;;;;;;;;6191237;23;20312;-85
2022/03/03 16:03:23;;;;;;;;;;;;;;;;;;6191215;23;19942;-85
2022/03/03 16:05:49;;;;;;;;;;;;;;;;;;6191183;23;19904;-84
2022/03/03 16:08:16;;;;;;;;;;;;;;;;;;6217776;23;19908;-85
2022/03/03 16:10:42;;;;;;;;;;;;;;;;;;6217842;23;19900;-84
2022/03/03 16:13:09;;;;;;;;;;;;;;;;;;6191056;23;19900;-82
2022/03/03 16:15:35;;;;;;;;;;;;;;;;;;6191060;23;19904;-83
2022/03/03 16:18:01;;;;;;;;;;;;;;;;;;6190981;23;19900;-85
2022/03/03 16:20:27;;;;;;;;;;;;;;;;;;6190853;23;20202;-87
2022/03/03 16:22:53;;;;;;;;;;;;;;;;;;6189706;23;19907;-85
2022/03/03 16:25:19;;;;;;;;;;;;;;;;;;6189938;23;19906;-85
2022/03/03 16:27:45;;;;;;;;;;;;;;;;;;6216794;23;19950;-83
2022/03/03 16:30:11;;;;;;;;;;;;;;;;;;6247299;23;20232;-83
2022/03/03 16:32:40;;;;;;;;;;;;;;;;;;6247274;23;19899;-84
2022/03/03 16:35:06;;;;;;;;;;;;;;;;;;6220738;23;19907;-84
2022/03/03 16:37:32;;;;;;;;;;;;;;;;;;6220331;23;19931;-83
2022/03/03 16:39:57;;;;;;;;;;;256.00;998.40;;;;;;6247185;23;19900;-84
2022/03/03 16:42:23;;;;;;;;;;;256.00;998.40;;;;;;6220438;23;19907;-84
2022/03/03 16:44:50;;;;;;;;;;;231.30;1024.00;;;;;;6245916;23;19927;-84
2022/03/03 16:47:16;;;;;;;;;;;231.30;1024.00;;;;;;6245764;23;19907;-85
2022/03/03 16:49:42;;;;;;;;;;;231.20;1024.00;;;;;;6219208;23;19911;-92
2022/03/03 16:52:10;;;;;;;;;;;256.30;1049.60;;;;;;6219779;23;19900;-85
2022/03/03 16:54:36;;;;;;;;;;;231.10;1024.00;;;;;;6221475;23;19990;-84
2022/03/03 16:57:02;;;;;;;;;;;231.00;1049.60;;;;;;6221415;23;19900;-83
2022/03/03 16:59:27;;;;;;;;;;;231.00;1024.00;;;;;;6220567;23;19907;-93
2022/03/03 17:01:53;;;;;;;;;;;231.00;1024.00;;;;;;6219872;23;20225;-82
2022/03/03 17:04:18;;;;;;;;;;;230.90;1024.00;;;;;;6220560;23;19990;-85
2022/03/03 17:06:44;;;;;;;;;;;230.90;1049.60;;;;;;6220402;23;19957;-84
2022/03/03 17:09:10;;;;;;;;;;;230.70;1024.00;;;;;;6247199;23;19899;-84
2022/03/03 17:11:36;;;;;;;;;;;230.70;1049.60;;;;;;6247141;23;19907;-88
2022/03/03 17:14:02;;;;;;;;;;;230.50;1075.20;;;;;;6219986;23;19906;-84
2022/03/03 17:16:28;;;;;;;;;;;230.50;1049.60;;;;;;6246757;23;19900;-83
2022/03/03 17:18:54;;;;;;;;;;;230.50;1049.60;;;;;;6219450;23;19983;-82
2022/03/03 17:21:20;;;;;;;;;;;230.40;1049.60;;;;;;6220765;23;19900;-83
2022/03/03 17:23:47;;;;;;;;;;;205.70;1075.20;;;;;;6220376;23;19969;-83
2022/03/03 17:26:15;;;;;;;;;;;205.70;1049.60;;;;;;6239033;23;19916;-93
2022/03/03 17:28:42;;;;;;;;;;;205.60;1075.20;;;;;;6219104;23;19978;-91
2022/03/03 17:31:09;;;;;;;;;;;205.50;1075.20;;;;;;6218855;23;20035;-85
2022/03/03 17:33:35;;;;;;;;;;;205.50;1075.20;;;;;;6196562;23;19903;-84
2022/03/03 17:36:01;;;;;;;;;;;205.40;1075.20;;;;;;6192413;23;19907;-84
2022/03/03 17:38:27;;;;;;;;;;;205.30;1100.80;;;;;;6191106;23;19904;-93
2022/03/03 17:40:54;;;;;;;;;;;205.30;1100.80;;;;;;6194621;23;19900;-92
2022/03/03 17:43:21;;;;;;;;;;;205.20;1126.40;;;;;;6191676;23;19900;-84
2022/03/03 17:45:47;;;;;;;;;;;205.20;1126.40;;;;;;6190487;23;19911;-84
2022/03/03 17:48:12;;;;;;;;;;;205.10;1126.40;;;;;;6190066;23;19914;-84
2022/03/03 17:50:38;;;;;;;;;;;205.00;1126.40;;;;;;6216738;23;19954;-84
2022/03/03 17:53:04;;;;;;;;;;;204.90;1126.40;;;;;;6190416;23;19900;-89
2022/03/03 17:55:30;;;;;;;;;;;204.80;1152.00;;;;;;6191069;23;20268;-94
2022/03/03 17:57:55;;;;;;;;;;;204.80;1152.00;;;;;;6191645;23;19944;-93
2022/03/03 18:00:21;;;;;;;;;;;204.80;1177.60;;;;;;6191916;23;19900;-94
2022/03/03 18:02:47;;;;;;;;;;;180.10;1152.00;;;;;;6191053;23;19900;-93
2022/03/03 18:05:12;;;;;;;;;;;180.10;1177.60;;;;;;6192003;23;19900;-92
2022/03/03 18:07:38;;;;;;;;;;;180.10;1177.60;;;;;;6190862;23;19908;-93
2022/03/03 18:10:05;;;;;;;;;;;180.00;1177.60;;;;;;6191105;23;19942;-93
2022/03/03 18:12:31;;;;;;;;;;;179.90;1203.20;;;;;;6190815;23;19907;-92
2022/03/03 18:14:57;;;;;;;;;;;179.80;1203.20;;;;;;6190982;23;19903;-93
2022/03/03 18:17:22;;;;;;;;;;;179.80;1228.80;;;;;;6190989;23;19907;-91
2022/03/03 18:19:48;;;;;;;;;;;179.70;1203.20;;;;;;6190757;23;19907;-86
2022/03/03 18:22:13;;;;;;;;;;;179.70;1203.20;;;;;;6190090;23;19919;-86
2022/03/03 18:24:39;;;;;;;;;;;179.60;1203.20;;;;;;6189527;23;19900;-87
2022/03/03 18:27:06;;;;;;;;;;;179.60;1177.60;;;;;;6208173;23;19911;-86
2022/03/03 18:29:32;;;;;;;;;;;179.50;1203.20;;;;;;6220224;23;19903;-86
2022/03/03 18:31:58;;;;;;;;;;;179.50;1203.20;;;;;;6220446;23;19899;-87
2022/03/03 18:34:23;;;;;;;;;;;179.50;1203.20;;;;;;6220196;23;19910;-88
2022/03/03 18:36:50;;;;;;;;;;;179.40;1203.20;;;;;;6220451;23;20012;-91
2022/03/03 18:39:15;;;;;;;;;;;179.30;1228.80;;;;;;6247140;23;19937;-93
2022/03/03 18:41:41;;;;;;;;;;;179.20;1228.80;;;;;;6220285;23;19900;-87
2022/03/03 18:44:08;;;;;;;;;;;154.50;1228.80;;;;;;6221376;23;19899;-88
2022/03/03 18:46:35;;;;;;;;;;;179.20;1254.40;;;;;;6221878;23;19935;-93
2022/03/03 18:49:09;;;;;;;;;;;179.20;1228.80;;;;;;6222746;23;19942;-90
2022/03/03 18:51:35;;;;;;;;;;;154.50;1254.40;;;;;;6219830;23;20221;-93
2022/03/03 18:54:02;;;;;;;;;;;154.50;1254.40;;;;;;6221481;23;19900;-86
2022/03/03 18:56:28;;;;;;;;;;;154.30;1254.40;;;;;;6220503;23;19907;-86
2022/03/03 18:58:53;;;;;;;;;;;154.20;1254.40;;;;;;6220717;23;19901;-88
2022/03/03 19:01:19;;;;;;;;;;;154.20;1280.00;;;;;;6220663;23;19982;-88
2022/03/03 19:03:45;;;;;;;;;;;154.20;1305.60;;;;;;6221169;23;19899;-87
2022/03/03 19:06:10;;;;;;;;;;;154.40;1305.60;;;;;;6220756;23;20339;-87
2022/03/03 19:08:36;;;;;;;;;;;154.30;1305.60;;;;;;6220553;23;19986;-87
2022/03/03 19:11:05;;;;;;;;;;;154.20;1331.20;;;;;;6221064;23;19907;-85
2022/03/03 19:13:31;;;;;;;;;;;154.00;1280.00;;;;;;6220794;23;19903;-87
2022/03/03 19:15:56;;;;;;;;;;;154.00;1305.60;;;;;;6220402;23;20275;-89
2022/03/03 19:18:22;;;;;;;;;;;153.90;1280.00;;;;;;6220692;23;19900;-85
2022/03/03 19:20:47;;;;;;;;;;;153.90;1305.60;;;;;;6220865;23;20309;-87
2022/03/03 19:23:16;;;;;;;;;;;153.90;1331.20;;;;;;6220458;23;19903;-86
2022/03/03 19:25:42;;;;;;;;;;;153.80;1331.20;;;;;;6219231;23;19994;-87
2022/03/03 19:28:07;;;;;;;;;;;153.70;1331.20;;;;;;6190641;23;20322;-87
2022/03/03 19:30:33;;;;;;;;;;;153.70;1331.20;;;;;;6189994;23;19960;-86
2022/03/03 19:35:43;;;;;;;;;;;153.60;1356.80;;;;;;6217280;23;20445;-87
2022/03/03 19:38:08;;;;;;;;;;;153.60;1356.80;;;;;;6190382;23;19979;-87
2022/03/03 19:40:35;;;;;;;;;;;153.60;1382.40;;;;;;6216835;23;19900;-88
2022/03/03 19:43:04;;;;;;;;;;;153.60;1356.80;;;;;;6216372;23;20221;-88
2022/03/03 19:45:30;;;;;;;;;;;128.90;1382.40;;;;;;6190691;23;19906;-87
2022/03/03 19:47:56;;;;;;;;;;;128.90;2252.80;;;;;;6189834;23;19994;-87
2022/03/03 19:50:22;;;;;;;;;;;128.90;1382.40;;;;;;6190519;23;19907;-86
2022/03/03 19:52:47;;;;;;;;;;;128.80;1356.80;;;;;;6189970;23;20309;-88
2022/03/03 19:55:18;;;;;;;;;;;128.90;1459.20;;;;;;6199681;23;19900;-92
2022/03/03 19:57:45;;;;;;;;;;;128.90;1408.00;;;;;;6228693;23;19907;-94
2022/03/03 20:00:12;;;;;;;;;;;128.80;1382.40;;;;;;6193247;23;19900;-94
2022/03/03 20:02:38;;;;;;;;;;;128.60;1356.80;;;;;;6199031;23;20328;-92
2022/03/03 20:05:04;;;;;;;;;;;128.60;1331.20;;;;;;6192594;23;19900;-93
2022/03/03 20:07:30;;;;;;;;;;;128.70;1331.20;;;;;;6193332;23;19911;-91
2022/03/03 20:12:40;;;;;;;;;;;128.50;1356.80;;;;;;6221843;23;19954;-90
2022/03/03 20:15:06;;;;;;;;;;;128.60;1382.40;;;;;;6194966;23;20253;-96
2022/03/03 20:17:32;;;;;;;;;;;128.60;1356.80;;;;;;6193131;23;19904;-94
2022/03/03 20:19:59;;;;;;;;;;;128.50;1356.80;;;;;;6191339;23;19935;-95
2022/03/03 20:22:24;;;;;;;;;;;128.60;1356.80;;;;;;6191834;23;20206;-92
2022/03/03 20:24:50;;;;;;;;;;;128.50;1356.80;;;;;;6191964;23;19935;-95
2022/03/03 20:27:16;;;;;;;;;;;128.50;1382.40;;;;;;6211466;23;19923;-94
2022/03/03 20:29:42;;;;;;;;;;;128.50;1356.80;;;;;;6221566;23;19904;-95
2022/03/03 20:32:07;;;;;;;;;;;128.50;1356.80;;;;;;6221526;23;19899;-93
2022/03/03 20:34:34;;;;;;;;;;;128.50;1356.80;;;;;;6221437;23;20336;-92
2022/03/03 20:37:00;;;;;;;;;;;128.60;1382.40;;;;;;6220724;23;19910;-90
2022/03/03 20:39:26;;;;;;;;;;;128.60;1356.80;;;;;;6248321;23;20288;-93
2022/03/03 20:41:52;;;;;;;;;;;128.60;1356.80;;;;;;6221477;23;19906;-92
2022/03/03 20:44:18;;;;;;;;;;;128.60;1356.80;;;;;;6221223;23;20328;-91
2022/03/03 20:46:47;;;;;;;;;;;128.60;1356.80;;;;;;6247618;23;20233;-93
2022/03/03 20:49:15;;;;;;;;;;;128.60;1356.80;;;;;;6221351;23;20215;-93
2022/03/03 20:51:41;;;;;;;;;;;128.70;1356.80;;;;;;6221665;23;20214;-91
2022/03/03 20:54:08;;;;;;;;;;;128.70;1356.80;;;;;;6221360;23;19906;-93
2022/03/03 20:56:37;;;;;;;;;;;128.60;1331.20;;;;;;6221490;23;19942;-92
2022/03/03 20:59:03;;;;;;;;;;;128.60;1331.20;;;;;;6220975;23;19949;-93
2022/03/03 21:01:29;;;;;;;;;;;128.60;1382.40;;;;;;6221412;23;19906;-91
2022/03/03 21:03:54;;;;;;;;;;;128.50;1356.80;;;;;;6221075;23;20240;-90
2022/03/03 21:06:20;;;;;;;;;;;128.50;1382.40;;;;;;6247826;23;19914;-92
2022/03/03 21:08:46;;;;;;;;;;;128.50;1382.40;;;;;;6221024;23;19903;-90
2022/03/03 21:11:12;;;;;;;;;;;128.50;1356.80;;;;;;6219866;23;19953;-91
2022/03/03 21:13:37;;;;;;;;;;;128.50;1356.80;;;;;;6246976;23;19907;-92
2022/03/03 21:16:03;;;;;;;;;;;128.50;1331.20;;;;;;6223778;23;19906;-94
2022/03/03 21:18:30;;;;;;;;;;;128.50;1331.20;;;;;;6222520;23;19974;-91
2022/03/03 21:20:57;;;;;;;;;;;128.60;1356.80;;;;;;6223382;23;19974;-93
2022/03/03 21:23:25;;;;;;;;;;;128.60;1382.40;;;;;;6223840;23;19903;-94
2022/03/03 21:25:52;;;;;;;;;;;128.50;1433.60;;;;;;6224028;23;19927;-94
2022/03/03 21:28:17;;;;;;;;;;;128.50;1664.00;;;;;;6224452;23;19908;-93
2022/03/03 21:30:43;;;;;;;;;;;128.60;1382.40;;;;;;6223981;23;19900;-91
2022/03/03 21:33:09;;;;;;;;;;;128.60;1408.00;;;;;;6221240;23;19900;-93
2022/03/03 21:35:35;;;;;;;;;;;128.60;1433.60;;;;;;6223327;23;19899;-92
2022/03/03 21:38:01;;;;;;;;;;;128.60;1382.40;;;;;;6221463;23;19900;-94
2022/03/03 21:40:27;;;;;;;;;;;128.60;1356.80;;;;;;6223826;23;19903;-94
2022/03/03 21:42:52;;;;;;;;;;;128.60;1382.40;;;;;;6220519;23;19903;-93
2022/03/03 21:45:18;;;;;;;;;;;128.60;1356.80;;;;;;6220693;23;19900;-93
2022/03/03 21:47:44;;;;;;;;;;;128.60;1382.40;;;;;;6220106;23;20214;-92
2022/03/03 21:50:10;;;;;;;;;;;128.60;1792.00;;;;;;6220849;23;19907;-92
2022/03/03 21:52:37;;;;;;;;;;;128.60;1433.60;;;;;;6220405;23;19949;-93
2022/03/03 21:55:07;;;;;;;;;;;128.40;1664.00;;;;;;6220613;23;19906;-93
2022/03/03 21:57:32;;;;;;;;;;;128.40;1408.00;;;;;;6221225;23;19950;-92
2022/03/03 21:59:58;;;;;;;;;;;128.30;1459.20;;;;;;6221298;23;19982;-92
2022/03/03 22:02:24;;;;;;;;;;;128.30;1459.20;;;;;;6221035;23;19931;-94
2022/03/03 22:04:50;;;;;;;;;;;128.20;1459.20;;;;;;6220989;23;19903;-93
2022/03/03 22:07:17;;;;;;;;;;;128.10;2227.20;;;;;;6220889;23;19918;-93
2022/03/03 22:09:43;;;;;;;;;;;128.20;2073.60;;;;;;6221010;23;19983;-93
2022/03/03 22:12:09;;;;;;;;;;;128.00;1484.80;;;;;;6221138;23;19900;-93
2022/03/03 22:14:35;;;;;;;;;;;128.10;1459.20;;;;;;6220973;23;19978;-94
2022/03/03 22:17:01;;;;;;;;;;;128.00;1484.80;;;;;;6220829;23;19907;-94
2022/03/03 22:19:27;;;;;;;;;;;128.00;1484.80;;;;;;6222258;23;19904;-92
2022/03/03 22:21:52;;;;;;;;;;;103.30;1484.80;;;;;;6224369;23;19899;-93
2022/03/03 22:24:18;;;;;;;;;;;103.20;1484.80;;;;;;6222813;23;19969;-93
2022/03/03 22:26:44;;;;;;;;;;;103.10;1484.80;;;;;;6222607;23;19915;-93
2022/03/03 22:29:09;;;;;;;;;;;103.00;1536.00;;;;;;6222658;23;19900;-93
2022/03/03 22:31:35;;;;;;;;;;;102.90;1561.60;;;;;;6223688;23;19945;-93
2022/03/03 22:34:01;;;;;;;;;;;102.90;1638.40;;;;;;6222779;23;20326;-92
2022/03/03 22:36:26;;;;;;;;;;;102.80;1766.40;;;;;;6222848;23;19910;-93
2022/03/03 22:38:52;;;;;;;;;;;102.80;1740.80;;;;;;6223262;23;19939;-93
2022/03/03 22:41:18;;;;;;;;;;;102.70;1664.00;;;;;;6222912;23;19906;-93
2022/03/03 22:43:44;;;;;;;;;;;102.70;1612.80;;;;;;6222691;23;19970;-93
2022/03/03 22:46:10;;;;;;;;;;;102.80;1612.80;;;;;;6222915;23;19899;-95
2022/03/03 22:48:35;;;;;;;;;;;102.70;1587.20;;;;;;6222810;23;19986;-92
2022/03/03 22:53:45;;;;;;;;;;;102.70;1587.20;;;;;;6250580;23;19911;-93